Time;durP1;ratioP1;P1;durP2;ratioP2;P2;SDS_P1;SDS_P2;PMS_P1;PMS_P2;Temp;Humidity;BMP_temperature;BMP_pressure;BME280_temperature;BME280_humidity;BME280_pressure;Samples;Min_cycle;Max_cycle;Signal;HPM_P1;HPM_P2
2023/10/28 00:00:33;;;;;;;6.68;1.60;;;10.30;94.50;;;;;;6179778;28;20058;-76
2023/10/28 00:03:35;;;;;;;5.97;1.70;;;10.30;94.60;;;;;;6148170;28;20106;-76
2023/10/28 00:06:39;;;;;;;4.63;1.40;;;10.30;94.70;;;;;;6158726;28;20059;-77
2023/10/28 00:09:40;;;;;;;5.05;1.25;;;10.30;94.80;;;;;;6171292;28;20046;-76
2023/10/28 00:12:42;;;;;;;5.97;1.40;;;10.30;94.80;;;;;;6148158;28;20051;-75
2023/10/28 00:15:43;;;;;;;5.85;1.40;;;10.30;94.90;;;;;;6160517;28;20058;-77
2023/10/28 00:18:46;;;;;;;4.25;1.30;;;10.30;94.80;;;;;;6123822;29;20150;-77
2023/10/28 00:21:47;;;;;;;4.90;1.45;;;10.30;94.80;;;;;;6146747;29;20074;-76
2023/10/28 00:24:49;;;;;;;5.72;1.40;;;10.30;94.90;;;;;;6170595;28;20093;-76
2023/10/28 00:27:50;;;;;;;4.75;1.20;;;10.30;94.90;;;;;;6129709;28;20526;-78
2023/10/28 00:30:52;;;;;;;4.13;1.13;;;10.30;94.90;;;;;;6165121;28;20561;-76
2023/10/28 00:33:54;;;;;;;4.72;1.35;;;10.30;94.80;;;;;;6123550;29;20055;-75
2023/10/28 00:36:55;;;;;;;5.13;1.42;;;10.20;94.70;;;;;;6156021;28;20051;-77
2023/10/28 00:39:57;;;;;;;3.78;1.30;;;10.20;94.70;;;;;;6170260;28;20058;-77
2023/10/28 00:42:59;;;;;;;6.03;1.40;;;10.10;94.70;;;;;;6149118;28;20051;-77
2023/10/28 00:46:02;;;;;;;4.68;1.40;;;10.10;94.70;;;;;;6164436;28;20063;-77
2023/10/28 00:49:05;;;;;;;7.03;1.55;;;10.00;94.60;;;;;;6147023;28;20134;-76
2023/10/28 00:52:07;;;;;;;4.07;1.50;;;9.90;94.90;;;;;;6170276;28;20051;-77
2023/10/28 00:55:11;;;;;;;6.13;1.40;;;9.80;94.90;;;;;;6147156;28;20054;-77
2023/10/28 00:58:13;;;;;;;5.75;1.40;;;9.70;95.00;;;;;;6164645;28;20495;-77
2023/10/28 01:01:14;;;;;;;4.90;1.38;;;9.70;95.10;;;;;;6146737;28;20051;-76
2023/10/28 01:04:16;;;;;;;9.05;1.70;;;9.80;95.30;;;;;;6125957;29;20065;-76
2023/10/28 01:07:18;;;;;;;4.82;1.50;;;9.70;95.40;;;;;;6164571;28;20086;-77
2023/10/28 01:10:19;;;;;;;4.50;1.35;;;9.70;95.40;;;;;;6170047;28;20514;-77
2023/10/28 01:13:21;;;;;;;5.35;1.48;;;9.80;95.50;;;;;;6144877;28;20395;-77
2023/10/28 01:16:22;;;;;;;5.72;1.38;;;9.80;95.50;;;;;;6149825;28;20755;-76
2023/10/28 01:19:24;;;;;;;4.45;1.30;;;9.80;95.40;;;;;;6169768;28;20055;-76
2023/10/28 01:22:26;;;;;;;4.30;1.08;;;9.80;95.50;;;;;;6147249;28;20062;-77
2023/10/28 01:25:28;;;;;;;3.45;1.10;;;9.70;95.40;;;;;;6156374;28;20058;-77
2023/10/28 01:28:30;;;;;;;7.13;1.15;;;9.70;95.40;;;;;;6147388;28;20054;-77
2023/10/28 01:31:32;;;;;;;3.70;1.30;;;9.80;95.40;;;;;;6170199;28;20432;-77
2023/10/28 01:34:33;;;;;;;3.60;1.05;;;9.70;95.40;;;;;;6144982;28;20054;-76
2023/10/28 01:37:35;;;;;;;5.07;1.25;;;9.70;95.50;;;;;;6184674;28;20054;-75
2023/10/28 01:40:37;;;;;;;5.65;1.30;;;9.70;95.60;;;;;;6146889;28;20059;-76
2023/10/28 01:43:40;;;;;;;5.40;1.20;;;9.80;95.50;;;;;;6156933;28;20051;-76
2023/10/28 01:46:41;;;;;;;6.22;1.10;;;9.80;95.60;;;;;;6147252;28;20062;-76
2023/10/28 01:49:43;;;;;;;6.20;1.30;;;9.80;95.70;;;;;;6169357;28;20077;-76
2023/10/28 01:52:45;;;;;;;4.60;1.13;;;9.80;95.70;;;;;;6146600;28;20495;-76
2023/10/28 01:55:47;;;;;;;8.90;1.33;;;9.90;95.80;;;;;;6169588;28;20055;-76
2023/10/28 01:58:48;;;;;;;4.75;1.30;;;9.90;95.80;;;;;;6148028;28;20047;-76
2023/10/28 02:01:50;;;;;;;4.88;1.42;;;9.90;95.80;;;;;;6169317;28;20059;-76
2023/10/28 02:04:52;;;;;;;5.15;1.10;;;9.90;95.90;;;;;;6144971;28;20535;-76
2023/10/28 02:07:54;;;;;;;5.40;1.42;;;9.90;95.70;;;;;;6170061;28;20060;-76
2023/10/28 02:10:55;;;;;;;6.72;1.20;;;9.80;95.60;;;;;;6146227;28;20067;-76
2023/10/28 02:13:57;;;;;;;4.65;1.45;;;9.80;95.50;;;;;;6160423;28;20141;-76
2023/10/28 02:16:59;;;;;;;6.30;1.27;;;9.70;95.70;;;;;;6203501;22;20050;-76
2023/10/28 02:20:00;;;;;;;5.32;1.30;;;9.80;95.80;;;;;;6237119;28;20283;-76
2023/10/28 02:23:02;;;;;;;4.45;1.10;;;9.80;95.80;;;;;;6223025;28;20081;-76
2023/10/28 02:26:05;;;;;;;8.05;1.40;;;9.90;95.90;;;;;;6199706;28;20066;-77
2023/10/28 02:29:06;;;;;;;5.90;1.40;;;9.90;95.90;;;;;;6216891;28;20047;-77
2023/10/28 02:32:08;;;;;;;6.75;1.15;;;9.90;95.90;;;;;;6221894;28;20062;-76
2023/10/28 02:35:10;;;;;;;8.48;1.17;;;9.80;95.90;;;;;;6214063;28;20494;-76
2023/10/28 02:38:12;;;;;;;3.03;0.90;;;9.80;95.80;;;;;;6219551;28;20199;-76
2023/10/28 02:41:14;;;;;;;4.55;1.10;;;9.70;95.70;;;;;;6220337;28;20504;-76
2023/10/28 02:44:16;;;;;;;8.60;1.15;;;9.60;95.80;;;;;;6219150;28;20058;-77
2023/10/28 02:47:17;;;;;;;5.55;1.00;;;9.50;95.80;;;;;;6179664;28;20791;-76
2023/10/28 02:50:19;;;;;;;4.53;1.00;;;9.60;95.90;;;;;;6221194;28;20064;-77
2023/10/28 02:53:21;;;;;;;7.55;1.30;;;9.60;95.90;;;;;;6217207;28;20420;-76
2023/10/28 02:56:22;;;;;;;8.18;1.00;;;9.60;95.90;;;;;;6220791;28;20421;-77
2023/10/28 02:59:24;;;;;;;3.58;0.77;;;9.60;95.90;;;;;;6213880;28;20493;-77
2023/10/28 03:02:26;;;;;;;6.15;1.08;;;9.60;95.90;;;;;;6221230;28;20060;-76
2023/10/28 03:05:29;;;;;;;8.35;1.10;;;9.60;96.00;;;;;;6183239;28;20341;-77
2023/10/28 03:08:31;;;;;;;8.75;1.30;;;9.60;96.00;;;;;;6220859;28;20057;-77
2023/10/28 03:11:32;;;;;;;4.00;1.00;;;9.70;96.10;;;;;;6221214;28;20069;-76
2023/10/28 03:14:34;;;;;;;6.38;1.05;;;9.70;96.10;;;;;;6191468;28;20047;-76
2023/10/28 03:17:36;;;;;;;3.35;0.90;;;9.80;96.10;;;;;;6221194;28;20058;-76
2023/10/28 03:20:37;;;;;;;3.38;0.82;;;9.80;96.20;;;;;;6211432;28;20051;-75
2023/10/28 03:23:39;;;;;;;4.60;1.00;;;9.80;96.10;;;;;;6218514;28;20544;-75
2023/10/28 03:26:41;;;;;;;5.38;1.30;;;9.70;96.10;;;;;;6220414;28;20132;-75
2023/10/28 03:29:44;;;;;;;6.28;1.10;;;9.70;96.10;;;;;;6217557;28;20061;-75
2023/10/28 03:32:47;;;;;;;4.97;1.00;;;9.70;96.20;;;;;;6177293;28;20062;-75
2023/10/28 03:35:49;;;;;;;4.68;0.98;;;9.70;96.10;;;;;;6176324;28;20054;-75
2023/10/28 03:38:50;;;;;;;4.93;1.05;;;9.70;96.20;;;;;;6219990;28;20417;-76
2023/10/28 03:41:53;;;;;;;3.42;0.98;;;9.60;96.10;;;;;;6192276;28;20402;-78
2023/10/28 03:44:55;;;;;;;4.22;0.85;;;9.50;96.00;;;;;;6213736;28;20421;-77
2023/10/28 03:47:56;;;;;;;4.38;0.90;;;9.50;96.00;;;;;;6220669;28;20050;-74
2023/10/28 03:50:58;;;;;;;4.68;1.00;;;9.40;96.00;;;;;;6206802;28;20055;-77
2023/10/28 03:54:00;;;;;;;5.30;1.00;;;9.40;96.10;;;;;;6219566;28;20054;-74
2023/10/28 03:57:01;;;;;;;5.70;1.10;;;9.50;96.20;;;;;;6220834;28;20050;-75
2023/10/28 04:00:03;;;;;;;4.45;0.93;;;9.50;96.10;;;;;;6209935;28;20058;-75
2023/10/28 04:03:05;;;;;;;3.65;0.80;;;9.50;96.20;;;;;;6218922;28;20064;-75
2023/10/28 04:06:07;;;;;;;3.00;0.82;;;9.40;96.10;;;;;;6219990;28;20053;-75
2023/10/28 04:09:08;;;;;;;2.60;0.80;;;9.40;96.10;;;;;;6196496;28;20432;-75
2023/10/28 04:12:10;;;;;;;7.82;0.95;;;9.30;96.20;;;;;;6219666;28;20092;-76
2023/10/28 04:15:13;;;;;;;5.25;0.90;;;9.40;96.20;;;;;;6216083;28;20677;-76
2023/10/28 04:18:15;;;;;;;3.05;1.10;;;9.30;96.10;;;;;;6197697;28;20046;-76
2023/10/28 04:21:17;;;;;;;4.57;1.08;;;9.30;96.20;;;;;;6218554;28;20056;-76
2023/10/28 04:24:18;;;;;;;4.13;0.98;;;9.40;96.20;;;;;;6219631;28;20049;-76
2023/10/28 04:27:21;;;;;;;3.70;0.85;;;9.50;96.30;;;;;;6212667;28;20058;-76
2023/10/28 04:30:22;;;;;;;3.05;0.80;;;9.60;96.40;;;;;;6217406;28;20054;-76
2023/10/28 04:33:24;;;;;;;2.85;0.63;;;9.80;96.40;;;;;;6220249;28;20050;-76
2023/10/28 04:36:26;;;;;;;2.35;0.68;;;9.90;96.50;;;;;;6219656;28;20085;-76
2023/10/28 04:39:27;;;;;;;7.70;1.30;;;10.00;96.30;;;;;;6179138;28;20051;-76
2023/10/28 04:42:29;;;;;;;3.05;0.82;;;10.10;96.30;;;;;;6218431;28;20056;-76
2023/10/28 04:45:31;;;;;;;5.88;1.10;;;10.20;96.30;;;;;;6212153;28;20046;-76
2023/10/28 04:48:33;;;;;;;2.67;0.60;;;10.20;96.20;;;;;;6194660;28;20638;-76
2023/10/28 04:51:35;;;;;;;3.85;0.75;;;10.20;96.20;;;;;;6193631;28;20053;-76
2023/10/28 04:54:38;;;;;;;5.25;0.70;;;10.20;96.20;;;;;;6218348;28;20531;-76
2023/10/28 04:57:40;;;;;;;5.03;0.90;;;10.20;96.20;;;;;;6207456;28;20058;-77
2023/10/28 05:00:42;;;;;;;2.20;0.63;;;10.20;96.20;;;;;;6213038;28;20058;-77
2023/10/28 05:03:44;;;;;;;4.38;0.80;;;10.20;96.10;;;;;;6171079;28;20057;-77
2023/10/28 05:06:46;;;;;;;2.08;0.52;;;10.10;96.00;;;;;;6218369;28;20057;-76
2023/10/28 05:09:47;;;;;;;4.00;0.80;;;10.10;96.00;;;;;;6196235;28;20050;-76
2023/10/28 05:12:49;;;;;;;6.30;0.90;;;10.10;96.00;;;;;;6217675;28;20061;-76
2023/10/28 05:15:51;;;;;;;8.60;1.00;;;10.00;96.00;;;;;;6213223;28;20060;-77
2023/10/28 05:18:52;;;;;;;3.50;0.52;;;10.00;96.00;;;;;;6196063;28;20051;-76
2023/10/28 05:21:55;;;;;;;3.88;0.70;;;9.90;96.40;;;;;;6187733;28;20054;-76
2023/10/28 05:24:57;;;;;;;4.50;0.82;;;9.90;96.20;;;;;;6218304;28;20050;-76
2023/10/28 05:27:59;;;;;;;5.05;1.05;;;9.90;96.30;;;;;;6212694;28;20148;-77
2023/10/28 05:31:01;;;;;;;3.65;0.90;;;9.90;96.40;;;;;;6213037;28;20058;-77
2023/10/28 05:34:02;;;;;;;6.15;0.90;;;9.80;96.50;;;;;;6170795;28;20066;-77
2023/10/28 05:37:05;;;;;;;3.30;0.77;;;9.90;96.50;;;;;;6201232;28;20565;-77
2023/10/28 05:40:10;;;;;;;3.60;0.82;;;9.80;96.50;;;;;;6218208;28;20046;-76
2023/10/28 05:43:12;;;;;;;3.13;0.77;;;9.80;96.50;;;;;;6217153;28;20050;-77
2023/10/28 05:46:14;;;;;;;4.05;0.80;;;9.80;96.50;;;;;;6204548;28;20137;-77
2023/10/28 05:49:15;;;;;;;5.40;0.85;;;9.80;96.50;;;;;;6196700;28;20141;-78
2023/10/28 05:52:20;;;;;;;4.18;0.95;;;9.80;96.50;;;;;;6222886;28;20100;-77
2023/10/28 05:55:22;;;;;;;5.47;1.67;;;9.80;96.80;;;;;;6219055;28;20046;-77
2023/10/28 05:58:23;;;;;;;3.60;0.90;;;9.90;96.60;;;;;;6217115;28;20463;-77
2023/10/28 06:01:25;;;;;;;5.90;1.10;;;9.90;96.70;;;;;;6223345;28;20160;-77
2023/10/28 06:04:30;;;;;;;6.05;1.20;;;10.00;96.40;;;;;;6213190;28;20054;-76
2023/10/28 06:07:31;;;;;;;4.97;0.93;;;10.20;96.50;;;;;;6223021;28;20053;-77
2023/10/28 06:10:34;;;;;;;3.92;0.82;;;10.30;96.50;;;;;;6222705;28;20050;-77
2023/10/28 06:13:36;;;;;;;6.50;0.82;;;10.30;96.60;;;;;;6219557;28;20065;-77
2023/10/28 06:16:38;;;;;;;4.50;0.82;;;10.30;96.60;;;;;;6214179;28;20069;-77
2023/10/28 06:19:42;;;;;;;3.63;1.27;;;10.30;96.60;;;;;;6221304;28;20057;-77
2023/10/28 06:22:44;;;;;;;2.83;0.70;;;10.30;96.60;;;;;;6222485;28;20057;-77
2023/10/28 06:25:46;;;;;;;3.13;0.80;;;10.30;96.60;;;;;;6184740;28;20055;-77
2023/10/28 06:28:47;;;;;;;2.83;0.55;;;10.20;96.60;;;;;;6219589;28;20562;-77
2023/10/28 06:31:49;;;;;;;2.65;0.63;;;10.20;96.50;;;;;;6222845;28;20046;-76
2023/10/28 06:34:51;;;;;;;2.95;0.70;;;10.10;96.50;;;;;;6210770;28;20752;-77
2023/10/28 06:37:52;;;;;;;3.08;0.70;;;10.00;96.40;;;;;;6221720;28;20050;-76
2023/10/28 06:40:54;;;;;;;5.00;0.90;;;10.00;96.50;;;;;;6221208;28;20168;-77
2023/10/28 06:43:56;;;;;;;6.30;1.20;;;10.00;96.50;;;;;;6211764;28;20054;-76
2023/10/28 06:46:58;;;;;;;4.72;0.95;;;9.90;96.90;;;;;;6207204;28;20081;-77
2023/10/28 06:49:59;;;;;;;3.55;0.95;;;9.90;96.90;;;;;;6221465;28;20060;-76
2023/10/28 06:53:01;;;;;;;7.15;1.40;;;9.90;96.90;;;;;;6221927;28;20424;-76
2023/10/28 06:56:03;;;;;;;4.22;0.90;;;9.90;96.90;;;;;;6184513;28;20063;-77
2023/10/28 06:59:04;;;;;;;7.00;1.05;;;9.80;96.80;;;;;;6215589;28;20058;-77
2023/10/28 07:02:06;;;;;;;4.30;0.88;;;9.80;96.90;;;;;;6220532;28;20390;-76
2023/10/28 07:05:11;;;;;;;4.13;1.00;;;9.90;96.90;;;;;;6198075;28;20561;-76
2023/10/28 07:08:15;;;;;;;7.75;1.17;;;9.90;96.90;;;;;;6222033;28;20060;-77
2023/10/28 07:11:16;;;;;;;4.45;1.00;;;10.00;96.60;;;;;;6221676;28;20062;-77
2023/10/28 07:14:18;;;;;;;5.05;1.02;;;10.00;96.60;;;;;;6212829;28;20675;-77
2023/10/28 07:17:20;;;;;;;3.78;1.00;;;10.00;96.60;;;;;;6220919;28;20141;-77
2023/10/28 07:20:21;;;;;;;4.18;1.13;;;10.00;96.60;;;;;;6215917;28;20512;-77
2023/10/28 07:23:30;;;;;;;7.50;1.15;;;10.10;96.70;;;;;;6219811;28;20530;-77
2023/10/28 07:26:32;;;;;;;5.38;1.02;;;10.10;96.70;;;;;;6173234;28;20141;-77
2023/10/28 07:29:34;;;;;;;5.10;0.90;;;10.20;96.80;;;;;;6218075;28;20409;-76
2023/10/28 07:32:36;;;;;;;7.57;1.10;;;10.30;96.80;;;;;;6180229;28;20190;-76
2023/10/28 07:35:38;;;;;;;5.72;1.20;;;10.30;96.80;;;;;;6218533;28;20050;-76
2023/10/28 07:38:40;;;;;;;4.20;1.10;;;10.40;96.80;;;;;;6221109;28;20054;-76
2023/10/28 07:41:42;;;;;;;6.88;1.30;;;10.40;96.80;;;;;;6205654;28;20049;-76
2023/10/28 07:44:44;;;;;;;4.25;0.80;;;10.50;96.80;;;;;;6216070;28;20061;-76
2023/10/28 07:47:45;;;;;;;6.75;0.90;;;10.50;96.80;;;;;;6200128;28;20054;-77
2023/10/28 07:50:48;;;;;;;4.90;1.13;;;10.60;96.90;;;;;;6208844;28;20224;-77
2023/10/28 07:53:50;;;;;;;5.35;0.88;;;10.70;96.90;;;;;;6220200;28;20061;-76
2023/10/28 07:56:52;;;;;;;3.88;1.20;;;10.70;96.90;;;;;;6220333;28;20049;-75
2023/10/28 07:59:55;;;;;;;5.53;1.13;;;10.70;96.80;;;;;;6205173;28;20406;-77
2023/10/28 08:02:57;;;;;;;7.07;0.80;;;10.80;96.70;;;;;;6189819;28;20486;-78
2023/10/28 08:05:59;;;;;;;9.10;1.33;;;10.90;96.70;;;;;;6203846;28;20046;-76
2023/10/28 08:09:00;;;;;;;7.53;1.30;;;10.90;96.70;;;;;;6175897;28;20081;-76
2023/10/28 08:12:04;;;;;;;5.28;0.90;;;10.90;96.60;;;;;;6219419;28;20054;-76
2023/10/28 08:15:07;;;;;;;4.70;0.82;;;11.00;96.50;;;;;;6180955;28;20057;-76
2023/10/28 08:18:09;;;;;;;5.05;0.90;;;11.10;96.50;;;;;;6219975;28;20482;-76
2023/10/28 08:21:13;;;;;;;7.35;1.08;;;11.10;96.20;;;;;;6211704;28;20064;-76
2023/10/28 08:24:16;;;;;;;7.88;1.58;;;11.10;96.30;;;;;;6191958;28;20053;-78
2023/10/28 08:27:19;;;;;;;5.38;1.10;;;11.20;96.40;;;;;;6208967;28;20058;-77
2023/10/28 08:30:21;;;;;;;8.18;0.90;;;11.20;96.60;;;;;;6170641;28;20057;-77
2023/10/28 08:33:22;;;;;;;5.65;1.10;;;11.20;96.30;;;;;;6183095;28;20055;-77
2023/10/28 08:36:25;;;;;;;6.65;1.00;;;11.20;96.40;;;;;;6218390;28;20060;-77
2023/10/28 08:39:28;;;;;;;2.97;0.80;;;11.30;96.20;;;;;;6219744;28;20046;-76
2023/10/28 08:42:30;;;;;;;3.88;1.10;;;11.40;96.10;;;;;;6190456;28;20704;-75
2023/10/28 08:45:31;;;;;;;4.93;0.80;;;11.30;95.90;;;;;;6187345;28;20046;-76
2023/10/28 08:48:33;;;;;;;7.80;1.65;;;11.30;95.90;;;;;;6218075;28;20053;-78
2023/10/28 08:51:35;;;;;;;5.20;1.13;;;11.30;95.80;;;;;;6191732;28;20058;-77
2023/10/28 08:54:38;;;;;;;7.68;1.02;;;11.30;95.80;;;;;;6218449;28;20061;-78
2023/10/28 08:57:39;;;;;;;6.53;1.10;;;11.30;95.80;;;;;;6190173;28;20043;-78
2023/10/28 09:00:41;;;;;;;5.97;1.00;;;11.30;95.70;;;;;;6213144;28;20050;-77
2023/10/28 09:03:43;;;;;;;3.40;0.95;;;11.40;95.70;;;;;;6174320;28;20055;-77
2023/10/28 09:06:45;;;;;;;6.03;1.08;;;11.40;95.60;;;;;;6193819;28;20421;-77
2023/10/28 09:09:48;;;;;;;7.03;0.95;;;11.50;95.40;;;;;;6203449;28;20057;-77
2023/10/28 09:12:50;;;;;;;9.23;1.15;;;11.60;95.10;;;;;;6218169;28;20136;-77
2023/10/28 09:15:53;;;;;;;7.13;1.45;;;11.50;94.80;;;;;;6202142;28;20066;-77
2023/10/28 09:18:55;;;;;;;8.40;1.17;;;11.60;94.60;;;;;;6193623;28;20061;-77
2023/10/28 09:21:58;;;;;;;13.40;1.60;;;11.70;94.60;;;;;;6216983;28;20056;-78
2023/10/28 09:25:00;;;;;;;5.18;1.13;;;11.90;95.00;;;;;;6221113;28;20053;-77
2023/10/28 09:28:07;;;;;;;6.15;1.20;;;12.30;92.60;;;;;;6196512;28;20054;-76
2023/10/28 09:31:09;;;;;;;7.78;1.40;;;12.30;92.70;;;;;;6171044;28;20054;-76
2023/10/28 09:34:11;;;;;;;8.20;1.40;;;12.20;92.60;;;;;;6187634;28;20049;-77
2023/10/28 09:37:12;;;;;;;8.35;1.23;;;12.20;92.60;;;;;;6200956;28;20532;-77
2023/10/28 09:40:20;;;;;;;6.70;1.20;;;12.00;92.40;;;;;;6210335;28;20197;-77
2023/10/28 09:43:22;;;;;;;12.52;2.03;;;12.00;93.10;;;;;;6215394;28;20062;-77
2023/10/28 09:46:26;;;;;;;8.18;1.10;;;12.00;93.60;;;;;;6222400;28;20058;-78
2023/10/28 09:49:28;;;;;;;8.45;1.63;;;11.90;93.80;;;;;;6192428;28;20468;-77
2023/10/28 09:52:29;;;;;;;7.10;1.60;;;12.20;94.60;;;;;;6209320;28;20776;-76
2023/10/28 09:55:31;;;;;;;8.95;1.40;;;13.40;92.50;;;;;;6217349;28;20061;-78
2023/10/28 09:58:32;;;;;;;8.27;1.25;;;14.60;90.80;;;;;;6190763;28;20050;-81
2023/10/28 10:01:35;;;;;;;6.07;1.40;;;15.30;82.00;;;;;;6185346;28;20054;-82
2023/10/28 10:04:37;;;;;;;7.95;1.20;;;15.70;76.90;;;;;;6235963;28;20057;-80
2023/10/28 10:07:38;;;;;;;7.60;1.73;;;16.50;76.80;;;;;;6201878;28;20058;-79
2023/10/28 10:10:40;;;;;;;11.60;2.13;;;17.10;53.00;;;;;;6205242;28;20414;-80
2023/10/28 10:13:42;;;;;;;9.57;1.98;;;17.00;67.20;;;;;;6204785;28;20054;-80
2023/10/28 10:16:43;;;;;;;7.03;1.55;;;17.00;43.30;;;;;;6157332;28;1226415;-79
2023/10/28 10:19:45;;;;;;;8.43;1.73;;;16.90;58.60;;;;;;6210437;28;20065;-77
2023/10/28 10:22:47;;;;;;;8.02;1.55;;;16.80;44.20;;;;;;6221207;28;20064;-78
2023/10/28 10:25:49;;;;;;;8.57;1.52;;;16.50;47.00;;;;;;6195433;28;20046;-78
2023/10/28 10:28:51;;;;;;;11.32;1.88;;;17.10;52.90;;;;;;6196268;28;20417;-79
2023/10/28 10:31:52;;;;;;;7.53;1.73;;;17.90;30.50;;;;;;6216039;28;20444;-80
2023/10/28 10:34:54;;;;;;;7.15;2.03;;;18.10;27.50;;;;;;6205152;28;20056;-81
2023/10/28 10:37:56;;;;;;;6.63;1.67;;;19.00;1.00;;;;;;6221065;28;20077;-80
2023/10/28 10:40:58;;;;;;;7.43;2.20;;;18.60;1.00;;;;;;6213874;28;20050;-79
2023/10/28 10:44:00;;;;;;;5.93;1.98;;;19.30;27.20;;;;;;6221119;28;20050;-79
2023/10/28 10:47:02;;;;;;;9.68;1.80;;;19.60;9.70;;;;;;6211061;28;20169;-79
2023/10/28 10:50:03;;;;;;;7.75;2.33;;;19.70;1.00;;;;;;6199966;28;20513;-80
2023/10/28 10:53:06;;;;;;;11.07;1.95;;;19.40;1.50;;;;;;6206869;28;20460;-80
2023/10/28 10:56:07;;;;;;;9.55;2.05;;;19.50;1.00;;;;;;6176873;28;20050;-78
2023/10/28 10:59:09;;;;;;;9.65;2.10;;;19.70;1.00;;;;;;6189226;28;20050;-79
2023/10/28 11:02:12;;;;;;;9.55;2.20;;;19.90;1.00;;;;;;6221062;28;20077;-79
2023/10/28 11:05:14;;;;;;;14.18;2.10;;;20.50;1.00;;;;;;6221630;28;20084;-79
2023/10/28 11:08:16;;;;;;;11.23;1.90;;;20.20;1.00;;;;;;6221484;28;20057;-79
2023/10/28 11:11:18;;;;;;;10.77;2.60;;;20.00;1.00;;;;;;6221279;28;20147;-78
2023/10/28 11:14:20;;;;;;;9.85;2.28;;;19.20;1.00;;;;;;6217915;28;20145;-78
2023/10/28 11:17:23;;;;;;;12.95;2.13;;;17.90;1.00;;;;;;6219993;28;20057;-78
2023/10/28 11:20:25;;;;;;;13.65;2.15;;;17.10;1.00;;;;;;6221906;28;20050;-78
2023/10/28 11:23:26;;;;;;;13.43;2.05;;;17.00;6.10;;;;;;6221098;28;20145;-78
2023/10/28 11:26:28;;;;;;;11.02;2.10;;;17.10;14.20;;;;;;6220850;28;20054;-78
2023/10/28 11:29:29;;;;;;;12.05;2.40;;;18.20;8.10;;;;;;6217677;28;20062;-79
2023/10/28 11:32:31;;;;;;;12.27;2.58;;;18.90;1.00;;;;;;6221028;28;20409;-79
2023/10/28 11:35:33;;;;;;;13.30;2.28;;;19.30;1.00;;;;;;6221049;28;20428;-77
2023/10/28 11:38:35;;;;;;;11.25;2.10;;;19.00;1.00;;;;;;6220908;28;20132;-77
2023/10/28 11:41:38;;;;;;;10.00;2.17;;;19.10;1.00;;;;;;6220796;28;20728;-77
2023/10/28 11:44:40;;;;;;;10.32;2.17;;;19.50;1.00;;;;;;6215164;28;20062;-77
2023/10/28 11:47:43;;;;;;;12.48;2.42;;;19.40;1.00;;;;;;6220023;28;20527;-77
2023/10/28 11:50:45;;;;;;;11.43;2.00;;;19.40;1.00;;;;;;6220699;28;20120;-76
2023/10/28 11:53:49;;;;;;;9.07;2.72;;;18.40;1.00;;;;;;6220812;28;20527;-77
2023/10/28 11:56:51;;;;;;;10.45;2.03;;;17.70;1.00;;;;;;6220235;28;20054;-77
2023/10/28 11:59:53;;;;;;;9.15;1.80;;;17.60;1.00;;;;;;6194647;28;20050;-77
2023/10/28 12:02:54;;;;;;;8.93;1.80;;;16.80;1.00;;;;;;6219638;28;20057;-77
2023/10/28 12:05:56;;;;;;;7.43;1.30;;;16.40;1.00;;;;;;6220097;28;20554;-77
2023/10/28 12:08:58;;;;;;;7.25;1.45;;;16.30;1.00;;;;;;6219979;28;20406;-77
2023/10/28 12:12:00;;;;;;;10.13;1.48;;;16.80;1.00;;;;;;6220136;28;20144;-77
2023/10/28 12:15:02;;;;;;;6.63;1.40;;;17.20;1.00;;;;;;6216267;28;20516;-77
2023/10/28 12:18:03;;;;;;;6.60;1.55;;;16.90;1.00;;;;;;6220389;28;20054;-78
2023/10/28 12:21:05;;;;;;;9.02;1.50;;;16.80;1.00;;;;;;6218823;28;20050;-76
2023/10/28 12:24:07;;;;;;;7.53;1.70;;;16.50;1.00;;;;;;6218391;28;20143;-77
2023/10/28 12:27:09;;;;;;;8.52;1.58;;;16.00;1.00;;;;;;6219652;28;20052;-76
2023/10/28 12:30:11;;;;;;;9.63;1.65;;;15.60;1.00;;;;;;6217495;28;20061;-76
2023/10/28 12:33:13;;;;;;;10.52;1.60;;;15.50;1.00;;;;;;6219201;28;20069;-76
2023/10/28 12:36:16;;;;;;;8.27;1.75;;;15.60;1.00;;;;;;6219397;28;20461;-76
2023/10/28 12:39:20;;;;;;;8.52;1.50;;;15.50;1.00;;;;;;6219594;28;20061;-76
2023/10/28 12:42:21;;;;;;;10.60;1.63;;;15.10;1.00;;;;;;6219198;28;20520;-76
2023/10/28 12:45:23;;;;;;;9.85;2.10;;;14.90;1.00;;;;;;6214722;28;20492;-76
2023/10/28 12:48:24;;;;;;;11.70;2.20;;;15.20;1.00;;;;;;6219208;28;20421;-76
2023/10/28 12:51:26;;;;;;;9.50;1.95;;;16.40;1.00;;;;;;6219400;28;20683;-76
2023/10/28 12:54:28;;;;;;;9.73;1.92;;;17.00;1.00;;;;;;6219122;28;20077;-76
2023/10/28 12:57:29;;;;;;;13.63;2.28;;;17.20;1.00;;;;;;6215627;28;20062;-76
2023/10/28 13:00:31;;;;;;;10.38;2.22;;;17.60;1.00;;;;;;6191866;28;20050;-76
2023/10/28 13:03:32;;;;;;;9.27;1.77;;;17.90;1.00;;;;;;6218503;28;20531;-77
2023/10/28 13:06:36;;;;;;;13.60;2.33;;;18.40;1.00;;;;;;6219111;28;20050;-77
2023/10/28 13:09:38;;;;;;;11.25;2.00;;;18.40;1.00;;;;;;6219076;28;20068;-77
2023/10/28 13:12:39;;;;;;;10.52;2.05;;;18.70;1.00;;;;;;6218886;28;20050;-79
2023/10/28 13:15:41;;;;;;;8.20;1.48;;;18.80;1.00;;;;;;6216093;28;20068;-77
2023/10/28 13:18:42;;;;;;;11.35;1.80;;;18.80;1.00;;;;;;6218891;28;20052;-78
2023/10/28 13:21:45;;;;;;;7.22;1.63;;;19.00;1.00;;;;;;6218834;28;20064;-78
2023/10/28 13:24:46;;;;;;;12.02;2.00;;;19.10;1.00;;;;;;6217156;28;20145;-77
2023/10/28 13:27:48;;;;;;;12.05;2.20;;;19.00;1.00;;;;;;6218480;28;20489;-78
2023/10/28 13:30:49;;;;;;;12.30;2.25;;;18.00;1.00;;;;;;6218151;28;20050;-78
2023/10/28 13:33:51;;;;;;;17.88;3.47;;;17.40;1.00;;;;;;6170453;28;20505;-77
2023/10/28 13:36:53;;;;;;;10.27;2.05;;;17.30;1.00;;;;;;6217353;28;20058;-77
2023/10/28 13:39:54;;;;;;;8.63;1.60;;;17.30;1.00;;;;;;6217196;28;20054;-77
2023/10/28 13:42:56;;;;;;;10.55;1.90;;;18.10;1.00;;;;;;6215233;28;20089;-78
2023/10/28 13:45:59;;;;;;;16.65;2.67;;;17.90;1.00;;;;;;6218826;28;20057;-77
2023/10/28 13:49:03;;;;;;;10.77;2.20;;;17.70;1.00;;;;;;6217108;28;20054;-77
2023/10/28 13:52:06;;;;;;;14.65;2.17;;;17.20;1.00;;;;;;6218612;28;20413;-77
2023/10/28 13:55:07;;;;;;;14.15;1.90;;;16.90;1.00;;;;;;6218105;28;20592;-76
2023/10/28 13:58:09;;;;;;;11.73;2.10;;;16.60;1.00;;;;;;6206237;28;20153;-77
2023/10/28 14:01:11;;;;;;;15.93;2.55;;;16.30;1.00;;;;;;6194458;28;20054;-77
2023/10/28 14:04:12;;;;;;;17.30;2.38;;;16.20;1.50;;;;;;6217621;28;20104;-76
2023/10/28 14:07:14;;;;;;;17.55;2.20;;;16.00;7.20;;;;;;6217833;28;20425;-77
2023/10/28 14:10:15;;;;;;;13.43;2.17;;;15.70;14.60;;;;;;6219992;28;20504;-77
2023/10/28 14:13:17;;;;;;;14.57;2.28;;;15.60;26.00;;;;;;6217383;28;20497;-76
2023/10/28 14:16:19;;;;;;;9.77;2.13;;;15.60;29.70;;;;;;6199956;28;20164;-77
2023/10/28 14:19:20;;;;;;;14.70;2.42;;;15.50;30.90;;;;;;6198192;28;20449;-77
2023/10/28 14:22:22;;;;;;;17.67;2.40;;;15.50;36.00;;;;;;6222012;28;20054;-76
2023/10/28 14:25:24;;;;;;;12.48;2.03;;;15.40;40.50;;;;;;6222824;28;20060;-77
2023/10/28 14:28:25;;;;;;;15.15;1.80;;;15.50;42.60;;;;;;6220891;28;20523;-78
2023/10/28 14:31:27;;;;;;;12.85;2.17;;;15.30;43.70;;;;;;6221415;28;20060;-76
2023/10/28 14:34:29;;;;;;;11.20;1.83;;;15.40;49.00;;;;;;6222337;28;20056;-76
2023/10/28 14:37:30;;;;;;;13.48;2.13;;;15.30;53.60;;;;;;6221978;28;20057;-76
2023/10/28 14:40:33;;;;;;;14.32;2.15;;;15.60;49.60;;;;;;6222049;28;20053;-76
2023/10/28 14:43:35;;;;;;;11.48;1.73;;;15.80;46.80;;;;;;6215355;28;20536;-76
2023/10/28 14:46:36;;;;;;;10.75;2.08;;;15.80;42.90;;;;;;6222164;28;20520;-76
2023/10/28 14:49:38;;;;;;;9.23;1.67;;;15.80;45.60;;;;;;6221951;28;20061;-76
2023/10/28 14:52:40;;;;;;;14.60;1.98;;;15.80;43.60;;;;;;6221646;28;20057;-76
2023/10/28 14:55:42;;;;;;;12.07;1.92;;;15.50;47.30;;;;;;6222130;28;20058;-76
2023/10/28 14:58:44;;;;;;;9.45;1.92;;;15.30;55.90;;;;;;6217023;28;20050;-76
2023/10/28 15:01:45;;;;;;;12.23;1.52;;;15.10;55.70;;;;;;6221699;28;20069;-76
2023/10/28 15:04:47;;;;;;;10.60;1.90;;;14.90;60.50;;;;;;6221492;28;20057;-77
2023/10/28 15:07:50;;;;;;;12.98;2.10;;;14.90;58.10;;;;;;6221189;28;20155;-76
2023/10/28 15:10:52;;;;;;;11.20;1.65;;;14.90;60.90;;;;;;6221312;28;20425;-76
2023/10/28 15:13:53;;;;;;;16.80;2.20;;;14.80;62.40;;;;;;6215130;28;20054;-76
2023/10/28 15:16:55;;;;;;;12.90;2.33;;;14.80;62.90;;;;;;6195269;28;20065;-76
2023/10/28 15:19:57;;;;;;;15.60;2.65;;;14.70;64.80;;;;;;6195552;28;20050;-76
2023/10/28 15:22:58;;;;;;;17.65;3.13;;;14.70;66.20;;;;;;6219551;28;20054;-77
2023/10/28 15:26:00;;;;;;;10.43;2.28;;;14.70;66.30;;;;;;6221384;28;20172;-76
2023/10/28 15:29:01;;;;;;;15.88;2.60;;;14.70;65.50;;;;;;6219249;28;20054;-77
2023/10/28 15:32:03;;;;;;;12.50;2.38;;;14.70;66.20;;;;;;6219886;28;20710;-76
2023/10/28 15:35:06;;;;;;;15.00;2.85;;;14.60;71.20;;;;;;6220727;28;20180;-77
2023/10/28 15:38:07;;;;;;;20.00;3.08;;;14.30;78.60;;;;;;6221026;28;20082;-76
2023/10/28 15:41:09;;;;;;;15.50;3.20;;;14.10;84.20;;;;;;6221112;28;20112;-77
2023/10/28 15:44:11;;;;;;;17.20;3.00;;;13.90;89.30;;;;;;6217366;28;20132;-77
2023/10/28 15:47:13;;;;;;;14.52;3.03;;;13.80;90.50;;;;;;6220696;28;20631;-76
2023/10/28 15:50:15;;;;;;;16.13;3.00;;;13.70;91.20;;;;;;6219376;28;20101;-76